createdAt,value
2019-03-22T00:04:50.641Z,98819.72
2019-03-22T00:07:19.050Z,98825.09
2019-03-22T00:12:21.197Z,98825.95
2019-03-22T00:14:49.596Z,98822.98
2019-03-22T00:17:18.030Z,98814.59
2019-03-22T00:19:46.423Z,98809.81
2019-03-22T00:22:33.780Z,98774.58
2019-03-22T00:25:02.184Z,98808.22
2019-03-22T00:27:30.608Z,98804.97
2019-03-22T00:30:17.930Z,98802.53
2019-03-22T00:32:46.359Z,98801.25
2019-03-22T00:35:14.838Z,98804.19
2019-03-22T00:38:02.117Z,98802.91
2019-03-22T00:43:17.929Z,98807.20
2019-03-22T00:46:05.250Z,98806.59
2019-03-22T00:48:33.663Z,98806.59
2019-03-22T00:51:02.070Z,98808.79
2019-03-22T00:53:30.633Z,98804.55
2019-03-22T00:55:59.054Z,98801.50
2019-03-22T00:58:27.478Z,98803.13
2019-03-22T01:00:55.902Z,98805.25
2019-03-22T01:03:24.328Z,98797.51
2019-03-22T01:05:52.779Z,98797.72
2019-03-22T01:08:21.182Z,98799.09
2019-03-22T01:10:49.609Z,98796.41
2019-03-22T01:13:18.028Z,98795.38
2019-03-22T01:15:46.424Z,98795.06
2019-03-22T01:18:14.832Z,98796.73
2019-03-22T01:20:43.235Z,98798.59
2019-03-22T01:23:11.673Z,98793.51
2019-03-22T01:25:40.063Z,98793.22
2019-03-22T01:28:08.469Z,98794.04
2019-03-22T01:30:36.864Z,98795.38
2019-03-22T01:33:05.268Z,98795.17
2019-03-22T01:35:33.715Z,98792.73
2019-03-22T01:38:02.137Z,98787.36
2019-03-22T01:40:30.523Z,98782.54
2019-03-22T01:42:58.969Z,98778.23
2019-03-22T01:45:27.367Z,98780.92
2019-03-22T01:47:55.784Z,98776.11
2019-03-22T01:50:24.175Z,98775.33
2019-03-22T01:52:52.585Z,98776.67
2019-03-22T01:55:21.023Z,98778.58
2019-03-22T01:57:53.673Z,98783.39
2019-03-22T02:00:19.740Z,98781.52
2019-03-22T02:02:48.149Z,98780.20
2019-03-22T02:05:16.565Z,98779.58
2019-03-22T02:07:44.984Z,98779.58
2019-03-22T02:10:13.407Z,98775.33
2019-03-22T02:12:41.823Z,98773.77
2019-03-22T02:15:12.225Z,98770.23
2019-03-22T02:17:40.644Z,98776.42
2019-03-22T02:20:09.667Z,98776.98
2019-03-22T02:22:38.086Z,98778.58
2019-03-22T02:25:06.708Z,98775.11
2019-03-22T02:27:35.135Z,98775.39
2019-03-22T02:30:03.587Z,98771.65
2019-03-22T02:32:32.013Z,98774.86
2019-03-22T02:35:00.434Z,98768.14
2019-03-22T02:37:28.811Z,98761.42
2019-03-22T02:39:57.216Z,98768.18
2019-03-22T02:42:25.642Z,98773.55
2019-03-22T02:44:54.041Z,98769.80
2019-03-22T02:47:22.454Z,98773.05
2019-03-22T02:49:50.861Z,98766.34
2019-03-22T02:52:19.287Z,98759.59
2019-03-22T02:54:47.707Z,98759.91
2019-03-22T02:57:16.157Z,98753.22
2019-03-22T02:59:44.560Z,98752.13
2019-03-22T03:02:12.952Z,98752.63
2019-03-22T03:04:41.364Z,98753.72
2019-03-22T03:07:09.777Z,98747.84
2019-03-22T03:09:38.198Z,98753.72
2019-03-22T03:12:06.592Z,98747.53
2019-03-22T03:14:35.011Z,98746.47
2019-03-22T03:17:03.392Z,98750.22
2019-03-22T03:19:31.800Z,98751.59
2019-03-22T03:22:00.277Z,98751.87
2019-03-22T03:24:28.681Z,98748.94
2019-03-22T03:26:57.198Z,98743.53
2019-03-22T03:29:25.594Z,98740.06
2019-03-22T03:31:54.011Z,98740.34
2019-03-22T03:34:22.401Z,98739.78
2019-03-22T03:36:50.929Z,98734.94
2019-03-22T03:39:19.339Z,98734.41
2019-03-22T03:41:47.734Z,98737.38
2019-03-22T03:44:16.135Z,98734.13
2019-03-22T03:46:44.545Z,98744.37
2019-03-22T03:49:12.933Z,98740.62
2019-03-22T03:51:41.346Z,98753.25
2019-03-22T03:54:09.866Z,98753.75
2019-03-22T03:56:38.305Z,98752.44
2019-03-22T03:59:06.700Z,98759.66
2019-03-22T04:01:35.183Z,98755.41
2019-03-22T04:04:03.668Z,98758.91
2019-03-22T04:06:32.163Z,98761.03
2019-03-22T04:09:00.564Z,98758.66
2019-03-22T04:11:28.973Z,98759.69
2019-03-22T04:13:57.502Z,98760.53
2019-03-22T04:16:25.911Z,98755.19
2019-03-22T04:18:54.365Z,98754.41
2019-03-22T04:21:22.774Z,98756.31
2019-03-22T04:23:51.206Z,98754.94
2019-03-22T04:26:19.602Z,98756.81
2019-03-22T04:28:47.997Z,98757.88
2019-03-22T04:31:16.406Z,98753.03
2019-03-22T04:33:44.804Z,98753.34
2019-03-22T04:36:13.209Z,98747.12
2019-03-22T04:38:41.621Z,98753.31
2019-03-22T04:41:10.061Z,98751.97
2019-03-22T04:43:38.464Z,98763.80
2019-03-22T04:46:06.889Z,98757.88
2019-03-22T04:48:35.326Z,98762.47
2019-03-22T04:51:03.898Z,98768.65
2019-03-22T04:53:34.721Z,98766.75
2019-03-22T04:56:03.148Z,98765.15
2019-03-22T04:58:31.544Z,98765.96
2019-03-22T05:00:59.957Z,98769.99
2019-03-22T05:03:28.470Z,98764.59
2019-03-22T05:05:57.132Z,98766.74
2019-03-22T05:08:25.531Z,98759.25
2019-03-22T05:10:53.981Z,98757.91
2019-03-22T05:13:22.401Z,98762.21
2019-03-22T05:15:50.823Z,98767.58
2019-03-22T05:18:19.229Z,98768.64
2019-03-22T05:20:47.632Z,98779.67
2019-03-22T05:23:16.078Z,98786.66
2019-03-22T05:25:44.472Z,98785.59
2019-03-22T05:28:12.936Z,98790.13
2019-03-22T05:31:15.232Z,98791.23
2019-03-22T05:33:43.644Z,98793.89
2019-03-22T05:36:12.039Z,98795.51
2019-03-22T05:38:40.460Z,98805.47
2019-03-22T05:41:08.869Z,98803.59
2019-03-22T05:43:37.301Z,98805.19
2019-03-22T05:46:05.695Z,98812.16
2019-03-22T05:48:34.129Z,98807.09
2019-03-22T05:51:02.542Z,98808.66
2019-03-22T05:53:30.936Z,98808.69
2019-03-22T05:55:59.375Z,98810.84
2019-03-22T05:58:27.775Z,98815.66
2019-03-22T06:00:56.278Z,98814.30
2019-03-22T06:03:24.663Z,98811.91
2019-03-22T06:05:53.075Z,98804.91
2019-03-22T06:08:21.478Z,98812.16
2019-03-22T06:10:49.889Z,98806.52
2019-03-22T06:13:18.287Z,98808.69
2019-03-22T06:15:46.730Z,98808.96
2019-03-22T06:18:15.161Z,98811.12
2019-03-22T06:20:43.551Z,98812.98
2019-03-22T06:23:11.962Z,98810.84
2019-03-22T06:25:40.377Z,98813.24
2019-03-22T06:28:08.801Z,98819.73
2019-03-22T06:30:37.196Z,98816.73
2019-03-22T06:33:05.647Z,98815.93
2019-03-22T06:35:34.059Z,98809.77
2019-03-22T06:38:02.469Z,98806.78
2019-03-22T06:40:30.863Z,98804.60
2019-03-22T06:42:59.270Z,98807.06
2019-03-22T06:45:27.671Z,98804.37
2019-03-22T06:47:56.083Z,98810.00
2019-03-22T06:50:24.475Z,98812.69
2019-03-22T06:52:52.889Z,98815.91
2019-03-22T06:55:21.289Z,98817.50
2019-03-22T06:57:49.691Z,98817.75
2019-03-22T07:00:18.121Z,98813.73
2019-03-22T07:02:46.523Z,98816.41
2019-03-22T07:05:14.913Z,98817.45
2019-03-22T07:07:43.328Z,98816.08
2019-03-22T07:10:11.758Z,98812.86
2019-03-22T07:12:40.172Z,98815.55
2019-03-22T07:15:08.588Z,98816.61
2019-03-22T07:17:36.985Z,98819.32
2019-03-22T07:20:05.795Z,98817.70
2019-03-22T07:22:34.222Z,98818.23
2019-03-22T07:25:02.733Z,98820.95
2019-03-22T07:27:31.145Z,98816.89
2019-03-22T07:29:59.558Z,98818.54
2019-03-22T07:32:27.965Z,98816.08
2019-03-22T07:34:56.409Z,98812.89
2019-03-22T07:37:24.804Z,98810.20
2019-03-22T07:39:53.196Z,98813.67
2019-03-22T07:42:21.606Z,98804.55
2019-03-22T07:44:50.109Z,98799.14
2019-03-22T07:47:18.508Z,98797.77
2019-03-22T07:49:46.906Z,98798.27
2019-03-22T07:52:15.437Z,98791.30
2019-03-22T07:54:43.839Z,98790.73
2019-03-22T07:57:12.240Z,98788.33
2019-03-22T07:59:40.631Z,98794.77
2019-03-22T08:02:09.037Z,98796.95
2019-03-22T08:04:37.432Z,98803.11
2019-03-22T08:07:05.835Z,98797.52
2019-03-22T08:09:34.334Z,98790.02
2019-03-22T08:12:02.757Z,98793.98
2019-03-22T08:14:31.143Z,98750.19
2019-03-22T08:16:59.544Z,98799.36
2019-03-22T08:19:27.953Z,98795.27
2019-03-22T08:21:56.356Z,98797.39
2019-03-22T08:24:24.787Z,98797.33
2019-03-22T08:26:53.157Z,98795.14
2019-03-22T08:29:21.566Z,98793.30
2019-03-22T08:31:49.965Z,98799.45
2019-03-22T08:34:18.372Z,98805.11
2019-03-22T08:36:46.772Z,98805.05
2019-03-22T08:39:15.182Z,98808.58
2019-03-22T08:41:43.695Z,98807.73
2019-03-22T08:44:12.097Z,98812.64
2019-03-22T08:46:40.564Z,98805.57
2019-03-22T08:49:09.634Z,98806.17
2019-03-22T08:51:38.220Z,98803.66
2019-03-22T08:54:06.687Z,98811.77
2019-03-22T08:56:36.215Z,98817.06
2019-03-22T08:59:04.852Z,98809.88
2019-03-22T09:01:33.264Z,98814.91
2019-03-22T09:04:01.707Z,98812.22
2019-03-22T09:06:30.174Z,98807.94
2019-03-22T09:08:58.628Z,98799.31
2019-03-22T09:11:27.019Z,98802.81
2019-03-22T09:13:55.420Z,98804.65
2019-03-22T09:16:23.877Z,98802.53
2019-03-22T09:18:52.225Z,98800.12
2019-03-22T09:21:20.701Z,98797.69
2019-03-22T09:23:49.061Z,98796.87
2019-03-22T09:26:19.906Z,98795.80
2019-03-22T09:28:47.676Z,98789.87
2019-03-22T09:31:16.040Z,98789.09
2019-03-22T09:33:44.484Z,98788.55
2019-03-22T09:36:12.878Z,98790.11
2019-03-22T09:38:41.314Z,98782.00
2019-03-22T09:41:09.713Z,98784.41
2019-03-22T09:43:38.121Z,98779.31
2019-03-22T09:46:06.522Z,98776.88
2019-03-22T09:48:34.928Z,98773.41
2019-03-22T09:51:03.330Z,98778.99
2019-03-22T09:53:31.738Z,98782.78
2019-03-22T09:56:00.161Z,98774.14
2019-03-22T09:58:28.606Z,98773.00
2019-03-22T10:00:56.973Z,98776.80
2019-03-22T10:03:25.365Z,98772.75
2019-03-22T10:05:53.785Z,98769.53
2019-03-22T10:08:22.179Z,98766.55
2019-03-22T10:10:50.571Z,98765.70
2019-03-22T10:13:19.001Z,98762.16
2019-03-22T10:15:47.507Z,98763.22
2019-03-22T10:18:15.882Z,98760.80
2019-03-22T10:20:44.257Z,98760.28
2019-03-22T10:23:12.700Z,98757.59
2019-03-22T10:25:41.080Z,98747.92
2019-03-22T10:28:09.480Z,98752.16
2019-03-22T10:30:37.893Z,98750.83
2019-03-22T10:33:06.298Z,98748.33
2019-03-22T10:35:34.830Z,98742.17
2019-03-22T10:38:04.722Z,98739.48
2019-03-22T10:40:33.294Z,98741.40
2019-03-22T10:43:01.709Z,98732.72
2019-03-22T10:45:30.101Z,98732.23
2019-03-22T10:47:58.502Z,98729.45
2019-03-22T10:50:26.909Z,98721.33
2019-03-22T10:52:55.355Z,98719.22
2019-03-22T10:55:30.156Z,98712.00
2019-03-22T10:57:55.468Z,98713.88
2019-03-22T11:00:23.850Z,98713.30
2019-03-22T11:02:52.249Z,98716.24
2019-03-22T11:05:20.664Z,98709.17
2019-03-22T11:07:49.066Z,98707.30
2019-03-22T11:10:17.491Z,98698.16
2019-03-22T11:12:45.896Z,98701.64
2019-03-22T11:15:14.341Z,98694.86
2019-03-22T11:17:42.780Z,98697.27
2019-03-22T11:20:11.715Z,98698.59
2019-03-22T11:22:40.118Z,98692.45
2019-03-22T11:25:08.611Z,98690.77
2019-03-22T11:27:37.149Z,98694.80
2019-03-22T11:30:06.860Z,98691.06
2019-03-22T11:32:35.269Z,98685.14
2019-03-22T11:35:03.755Z,98683.98
2019-03-22T11:37:32.182Z,98685.03
2019-03-22T11:40:00.580Z,98686.34
2019-03-22T11:42:28.983Z,98686.38
2019-03-22T11:44:57.396Z,98680.44
2019-03-22T11:47:25.797Z,98686.29
2019-03-22T11:49:54.214Z,98679.03
2019-03-22T11:52:22.612Z,98676.81
2019-03-22T11:54:51.015Z,98676.92
2019-03-22T11:57:19.416Z,98680.38
2019-03-22T11:59:47.826Z,98668.03
2019-03-22T12:02:22.400Z,98661.58
2019-03-22T12:04:46.398Z,98661.06
2019-03-22T12:07:15.042Z,98661.76
2019-03-22T12:09:43.541Z,98655.14
2019-03-22T12:12:11.960Z,98652.87
2019-03-22T12:14:40.374Z,98647.38
2019-03-22T12:17:08.773Z,98648.19
2019-03-22T12:19:37.201Z,98649.48
2019-03-22T12:22:05.686Z,98649.48
2019-03-22T12:24:34.098Z,98639.05
2019-03-22T12:27:02.544Z,98636.79
2019-03-22T12:29:30.941Z,98637.65
2019-03-22T12:31:59.377Z,98640.34
2019-03-22T12:34:27.784Z,98634.44
2019-03-22T12:36:56.190Z,98635.49
2019-03-22T12:39:24.613Z,98628.77
2019-03-22T12:41:53.130Z,98633.38
2019-03-22T12:44:21.545Z,98635.54
2019-03-22T12:46:50.126Z,98633.62
2019-03-22T12:49:18.528Z,98628.23
2019-03-22T12:51:46.993Z,98626.88
2019-03-22T12:54:15.396Z,98626.83
2019-03-22T12:56:43.809Z,98626.49
2019-03-22T12:59:12.212Z,98617.88
2019-03-22T13:01:40.621Z,98618.69
2019-03-22T13:04:09.057Z,98630.80
2019-03-22T13:06:37.523Z,98618.64
2019-03-22T13:09:07.737Z,98617.05
2019-03-22T13:11:36.179Z,98628.87
2019-03-22T13:14:04.590Z,98621.58
2019-03-22T13:16:33.019Z,98619.98
2019-03-22T13:19:01.450Z,98617.77
2019-03-22T13:21:29.868Z,98612.20
2019-03-22T13:23:58.272Z,98603.30
2019-03-22T13:26:26.688Z,98604.25
2019-03-22T13:28:55.110Z,98605.66
2019-03-22T13:31:23.523Z,98602.38
2019-03-22T13:33:51.933Z,98604.30
2019-03-22T13:36:20.366Z,98602.20
2019-03-22T13:38:48.764Z,98599.22
2019-03-22T13:41:17.155Z,98595.94
2019-03-22T13:43:45.564Z,98593.00
2019-03-22T13:46:13.977Z,98595.42
2019-03-22T13:48:42.433Z,98590.55
2019-03-22T13:51:10.842Z,98588.10
2019-03-22T13:53:39.259Z,98591.48
2019-03-22T13:56:07.704Z,98581.59
2019-03-22T13:58:36.097Z,98573.52
2019-03-22T14:01:04.505Z,98515.34
2019-03-22T14:03:33.284Z,98566.66
2019-03-22T14:06:01.726Z,98567.27
2019-03-22T14:08:30.121Z,98566.68
2019-03-22T14:10:58.558Z,98566.38
2019-03-22T14:13:27.050Z,98568.37
2019-03-22T14:15:55.439Z,98559.06
2019-03-22T14:18:23.864Z,98559.37
2019-03-22T14:20:52.280Z,98562.64
2019-03-22T14:23:20.704Z,98567.14
2019-03-22T14:25:49.099Z,98555.32
2019-03-22T14:28:17.504Z,98559.55
2019-03-22T14:30:45.945Z,98558.60
2019-03-22T14:33:14.349Z,98561.00
2019-03-22T14:35:42.776Z,98554.84
2019-03-22T14:38:11.186Z,98558.88
2019-03-22T14:40:39.580Z,98553.48
2019-03-22T14:43:07.988Z,98547.30
2019-03-22T14:45:36.391Z,98545.44
2019-03-22T14:48:04.801Z,98542.38
2019-03-22T14:50:33.203Z,98541.40
2019-03-22T14:53:01.604Z,98542.50
2019-03-22T14:55:30.109Z,98541.62
2019-03-22T14:57:58.513Z,98538.41
2019-03-22T15:00:26.999Z,98542.27
2019-03-22T15:02:55.406Z,98533.62
2019-03-22T15:05:23.813Z,98526.76
2019-03-22T15:07:52.217Z,98523.13
2019-03-22T15:10:20.629Z,98522.42
2019-03-22T15:12:49.156Z,98518.27
2019-03-22T15:15:35.422Z,98518.78
2019-03-22T15:18:14.780Z,98513.23
2019-03-22T15:21:02.134Z,98519.54
2019-03-22T15:24:03.636Z,98515.74
2019-03-22T15:26:50.794Z,98520.31
2019-03-22T15:29:47.225Z,98517.03
2019-03-22T15:32:40.696Z,98516.45
2019-03-22T15:35:43.209Z,98517.03
2019-03-22T15:38:33.685Z,98522.72
2019-03-22T15:41:02.117Z,98518.68
2019-03-22T15:43:30.529Z,98515.72
2019-03-22T15:45:58.957Z,98517.34
2019-03-22T15:48:27.377Z,98518.73
2019-03-22T15:50:55.765Z,98504.73
2019-03-22T15:53:24.183Z,98505.52
2019-03-22T15:55:52.589Z,98504.33
2019-03-22T15:58:20.991Z,98506.66
2019-03-22T16:00:49.417Z,98501.88
2019-03-22T16:03:17.828Z,98505.38
2019-03-22T16:05:46.239Z,98508.16
2019-03-22T16:08:14.747Z,98503.44
2019-03-22T16:10:43.155Z,98500.53
2019-03-22T16:13:11.556Z,98500.23
2019-03-22T16:15:39.969Z,98499.93
2019-03-22T16:18:08.389Z,98494.03
2019-03-22T16:20:36.805Z,98502.69
2019-03-22T16:23:05.204Z,98501.18
2019-03-22T16:25:33.617Z,98504.56
2019-03-22T16:28:02.025Z,98500.37
2019-03-22T16:30:30.415Z,98496.57
2019-03-22T16:32:58.833Z,98502.25
2019-03-22T16:35:27.243Z,98503.58
2019-03-22T16:37:55.661Z,98504.35
2019-03-22T16:40:24.633Z,98502.04
2019-03-22T16:42:53.057Z,98508.80
2019-03-22T16:45:37.743Z,98508.77
2019-03-22T16:48:06.156Z,98503.68
2019-03-22T16:50:34.557Z,98504.52
2019-03-22T16:53:02.967Z,98502.95
2019-03-22T16:55:31.364Z,98504.86
2019-03-22T16:57:59.773Z,98507.72
2019-03-22T17:00:28.179Z,98507.29
2019-03-22T17:02:56.588Z,98502.63
2019-03-22T17:05:25.067Z,98505.16
2019-03-22T17:07:53.472Z,98502.17
2019-03-22T17:10:23.472Z,98500.27
2019-03-22T17:12:52.089Z,98500.31
2019-03-22T17:15:20.492Z,98496.09
2019-03-22T17:17:48.896Z,98498.03
2019-03-22T17:20:17.313Z,98493.53
2019-03-22T17:22:45.721Z,98495.93
2019-03-22T17:25:14.131Z,98493.83
2019-03-22T17:27:42.537Z,98495.77
2019-03-22T17:30:11.542Z,98495.77
2019-03-22T17:32:39.944Z,98496.69
2019-03-22T17:35:08.421Z,98495.63
2019-03-22T17:37:36.841Z,98496.88
2019-03-22T17:40:05.334Z,98491.84
2019-03-22T17:42:33.740Z,98492.89
2019-03-22T17:45:02.153Z,98493.19
2019-03-22T17:47:30.555Z,98488.85
2019-03-22T17:49:58.969Z,98493.88
2019-03-22T17:52:27.412Z,98493.88
2019-03-22T17:54:55.820Z,98492.89
2019-03-22T17:57:24.307Z,98494.53
2019-03-22T17:59:52.713Z,98492.13
2019-03-22T18:02:21.111Z,98494.02
2019-03-22T18:04:49.516Z,98493.48
2019-03-22T18:07:17.903Z,98493.13
2019-03-22T18:09:46.317Z,98498.81
2019-03-22T18:12:14.715Z,98495.93
2019-03-22T18:14:43.534Z,98497.68
2019-03-22T18:17:12.030Z,98494.69
2019-03-22T18:19:40.452Z,98498.33
2019-03-22T18:22:08.853Z,98501.47
2019-03-22T18:24:37.281Z,98497.52
2019-03-22T18:27:05.718Z,98492.35
2019-03-22T18:29:34.138Z,98498.03
2019-03-22T18:32:02.530Z,98495.49
2019-03-22T18:34:34.812Z,98495.25
2019-03-22T18:37:01.015Z,98510.57
2019-03-22T18:39:29.417Z,98493.91
2019-03-22T18:41:57.818Z,98494.95
2019-03-22T18:44:26.229Z,98497.43
2019-03-22T18:46:54.634Z,98498.48
2019-03-22T18:49:23.056Z,98506.31
2019-03-22T18:51:51.517Z,98496.89
2019-03-22T18:54:19.929Z,98498.02
2019-03-22T18:56:48.339Z,98503.91
2019-03-22T18:59:16.809Z,98496.06
2019-03-22T19:01:45.220Z,98503.03
2019-03-22T19:04:13.621Z,98508.17
2019-03-22T19:06:42.028Z,98504.72
2019-03-22T19:09:10.464Z,98502.64
2019-03-22T19:11:38.861Z,98509.35
2019-03-22T19:14:07.256Z,98501.28
2019-03-22T19:16:35.651Z,98502.81
2019-03-22T19:19:04.063Z,98503.91
2019-03-22T19:21:32.456Z,98503.45
2019-03-22T19:24:00.860Z,98510.18
2019-03-22T19:26:30.619Z,98505.31
2019-03-22T19:28:59.068Z,98510.18
2019-03-22T19:31:27.464Z,98509.19
2019-03-22T19:33:55.893Z,98509.64
2019-03-22T19:36:24.304Z,98508.08
2019-03-22T19:38:52.718Z,98511.47
2019-03-22T19:41:21.116Z,98511.47
2019-03-22T19:43:49.556Z,98513.46
2019-03-22T19:46:17.961Z,98508.89
2019-03-22T19:48:46.379Z,98510.48
2019-03-22T19:51:14.867Z,98507.84
2019-03-22T19:53:43.282Z,98506.73
2019-03-22T19:56:11.692Z,98505.09
2019-03-22T19:58:40.115Z,98506.20
2019-03-22T20:01:08.528Z,98509.42
2019-03-22T20:03:36.936Z,98506.22
2019-03-22T20:06:05.351Z,98504.15
2019-03-22T20:08:33.782Z,98507.03
2019-03-22T20:11:02.196Z,98504.85
2019-03-22T20:13:30.599Z,98508.42
2019-03-22T20:15:59.003Z,98510.55
2019-03-22T20:18:27.407Z,98504.34
2019-03-22T20:20:55.816Z,98507.91
2019-03-22T20:23:24.230Z,98507.61
2019-03-22T20:25:52.729Z,98506.97
2019-03-22T20:28:21.145Z,98515.15
2019-03-22T20:30:49.558Z,98515.73
2019-03-22T20:33:18.229Z,98524.05
2019-03-22T20:35:46.657Z,98517.09
2019-03-22T20:38:15.069Z,98517.91
2019-03-22T20:40:43.490Z,98518.14
2019-03-22T20:43:11.893Z,98514.47
2019-03-22T20:45:40.305Z,98465.47
2019-03-22T20:48:08.722Z,98520.31
2019-03-22T20:50:37.140Z,98520.36
2019-03-22T20:53:05.534Z,98522.53
2019-03-22T20:55:33.939Z,98524.47
2019-03-22T20:58:02.428Z,98519.31
2019-03-22T21:00:30.849Z,98519.06
2019-03-22T21:02:59.331Z,98518.50
2019-03-22T21:05:27.751Z,98517.97
2019-03-22T21:07:56.165Z,98519.84
2019-03-22T21:10:24.578Z,98514.47
2019-03-22T21:12:52.987Z,98518.55
2019-03-22T21:15:24.622Z,98516.10
2019-03-22T21:17:51.449Z,98514.29
2019-03-22T21:20:19.862Z,98518.03
2019-03-22T21:22:48.261Z,98515.62
2019-03-22T21:25:16.666Z,98514.47
2019-03-22T21:27:45.160Z,98513.98
2019-03-22T21:30:13.586Z,98512.95
2019-03-22T21:32:45.680Z,98510.77
2019-03-22T21:35:21.844Z,98507.79
2019-03-22T21:37:42.206Z,98510.72
2019-03-22T21:40:10.641Z,98510.72
2019-03-22T21:42:39.048Z,98506.98
2019-03-22T21:45:07.483Z,98508.72
2019-03-22T21:47:35.939Z,98507.03
2019-03-22T21:50:04.502Z,98510.83
2019-03-22T21:52:32.912Z,98507.86
2019-03-22T21:55:01.322Z,98505.75
2019-03-22T21:57:29.736Z,98510.30
2019-03-22T21:59:58.126Z,98504.41
2019-03-22T22:02:26.550Z,98496.78
2019-03-22T22:04:54.958Z,98496.27
2019-03-22T22:07:23.388Z,98499.79
2019-03-22T22:09:51.784Z,98499.55
2019-03-22T22:12:20.251Z,98500.08
2019-03-22T22:14:48.667Z,98498.50
2019-03-22T22:17:17.157Z,98501.19
2019-03-22T22:19:45.585Z,98500.67
2019-03-22T22:22:13.996Z,98499.89
2019-03-22T22:24:42.395Z,98498.03
2019-03-22T22:27:14.041Z,98495.58
2019-03-22T22:29:40.871Z,98500.18
2019-03-22T22:32:09.285Z,98490.72
2019-03-22T22:34:37.687Z,98496.15
2019-03-22T22:37:06.096Z,98493.48
2019-03-22T22:39:34.550Z,98487.86
2019-03-22T22:42:02.976Z,98489.20
2019-03-22T22:44:31.400Z,98487.86
2019-03-22T22:46:59.848Z,98487.91
2019-03-22T22:49:28.291Z,98488.14
2019-03-22T22:51:56.692Z,98482.77
2019-03-22T22:54:25.099Z,98483.30
2019-03-22T22:56:53.502Z,98487.62
2019-03-22T22:59:21.922Z,98492.72
2019-03-22T23:01:50.329Z,98485.75
2019-03-22T23:04:18.729Z,98480.95
2019-03-22T23:06:47.160Z,98484.45
2019-03-22T23:09:15.558Z,98482.30
2019-03-22T23:11:43.956Z,98492.23
2019-03-22T23:14:12.370Z,98487.92
2019-03-22T23:16:40.781Z,98493.87
2019-03-22T23:19:09.191Z,98489.83
2019-03-22T23:21:37.610Z,98493.30
2019-03-22T23:24:06.018Z,98490.39
2019-03-22T23:26:34.438Z,98497.92
2019-03-22T23:29:02.842Z,98491.48
2019-03-22T23:31:31.245Z,98489.58
2019-03-22T23:33:59.830Z,98489.34
2019-03-22T23:36:28.241Z,98490.63
2019-03-22T23:38:56.649Z,98493.89
2019-03-22T23:41:25.066Z,98486.64
2019-03-22T23:43:53.477Z,98490.16
2019-03-22T23:46:21.886Z,98491.48
2019-03-22T23:48:50.304Z,98486.40
2019-03-22T23:51:18.712Z,98489.28
2019-03-22T23:53:47.120Z,98484.25
2019-03-22T23:56:15.523Z,98485.06
2019-03-22T23:58:43.956Z,98487.28
